Time;durP1;ratioP1;P1;durP2;ratioP2;P2;SDS_P1;SDS_P2;PMS_P1;PMS_P2;Temp;Humidity;BMP_temperature;BMP_pressure;BME280_temperature;BME280_humidity;BME280_pressure;Samples;Min_cycle;Max_cycle;Signal;HPM_P1;HPM_P2
2022/01/26 00:07:05;;;;;;;52.20;23.33;;;2.30;99.90;;;;;;5072603;28;20488;-59
2022/01/26 00:09:30;;;;;;;49.17;23.33;;;2.30;99.90;;;;;;5087084;28;20143;-59
2022/01/26 00:11:56;;;;;;;45.63;23.52;;;2.30;99.90;;;;;;5072534;28;20546;-60
2022/01/26 00:14:24;;;;;;;55.88;25.88;;;2.30;99.90;;;;;;5065221;28;20552;-60
2022/01/26 00:16:55;;;;;;;47.28;23.58;;;2.20;99.90;;;;;;5066325;28;20036;-60
2022/01/26 00:19:25;;;;;;;44.78;22.17;;;2.30;99.90;;;;;;5066285;28;20443;-60
2022/01/26 00:21:52;;;;;;;50.00;24.50;;;2.30;99.90;;;;;;5072873;28;20086;-58
2022/01/26 00:29:33;;;;;;;64.70;29.17;;;2.30;99.90;;;;;;5080259;28;20679;-58
2022/01/26 00:33:06;;;;;;;92.60;34.00;;;2.30;99.90;;;;;;5072790;28;20055;-58
2022/01/26 00:40:35;;;;;;;66.30;28.95;;;2.30;99.90;;;;;;5064810;28;20034;-58
2022/01/26 00:43:13;;;;;;;69.40;29.33;;;2.30;99.90;;;;;;5055181;28;20053;-59
2022/01/26 00:45:39;;;;;;;58.03;27.77;;;2.30;99.90;;;;;;5053044;28;20044;-59
2022/01/26 00:48:08;;;;;;;62.13;28.02;;;2.30;99.90;;;;;;5053239;28;20033;-59
2022/01/26 00:50:34;;;;;;;50.53;25.38;;;2.40;99.90;;;;;;5060194;28;20040;-59
2022/01/26 00:53:01;;;;;;;53.58;24.90;;;2.40;99.90;;;;;;5053816;28;20078;-57
2022/01/26 00:55:26;;;;;;;58.90;27.08;;;2.40;99.90;;;;;;5059131;28;20090;-58
2022/01/26 00:57:52;;;;;;;57.20;26.25;;;2.40;99.90;;;;;;5055589;28;20635;-61
2022/01/26 01:00:23;;;;;;;50.88;25.65;;;2.40;99.90;;;;;;5059493;28;20039;-59
2022/01/26 01:02:49;;;;;;;57.95;27.23;;;2.40;99.90;;;;;;5055869;28;20031;-59
2022/01/26 01:05:26;;;;;;;52.17;25.40;;;2.40;99.90;;;;;;5061423;28;20035;-62
2022/01/26 01:07:58;;;;;;;53.03;24.50;;;2.40;99.90;;;;;;5051793;28;20120;-59
2022/01/26 01:10:25;;;;;;;62.88;26.38;;;2.40;99.90;;;;;;5058930;28;20082;-59
2022/01/26 01:12:57;;;;;;;58.92;26.45;;;2.40;99.90;;;;;;5054404;28;20028;-60
2022/01/26 01:15:24;;;;;;;64.82;25.65;;;2.40;99.90;;;;;;5068194;28;20040;-60
2022/01/26 01:17:54;;;;;;;48.58;25.17;;;2.40;99.90;;;;;;5057053;28;20041;-59
2022/01/26 01:31:15;;;;;;;56.95;25.90;;;2.40;99.90;;;;;;5047139;28;20025;-58
2022/01/26 01:33:45;;;;;;;57.00;25.48;;;2.50;99.90;;;;;;5056135;28;20025;-59
2022/01/26 01:36:12;;;;;;;57.75;25.40;;;2.50;99.90;;;;;;5064554;28;20035;-59
2022/01/26 01:38:42;;;;;;;70.85;28.98;;;2.40;99.90;;;;;;5064267;28;20028;-60
2022/01/26 01:41:08;;;;;;;55.97;26.95;;;2.40;99.90;;;;;;5059627;28;20029;-59
2022/01/26 01:43:37;;;;;;;65.55;27.95;;;2.40;99.90;;;;;;5057093;28;20111;-59
2022/01/26 01:46:03;;;;;;;62.83;25.92;;;2.40;99.90;;;;;;5053002;28;20040;-60
2022/01/26 01:48:32;;;;;;;61.38;26.33;;;2.40;99.90;;;;;;5054415;28;20032;-61
2022/01/26 01:51:01;;;;;;;56.13;25.80;;;2.50;99.90;;;;;;5059590;28;20043;-59
2022/01/26 01:53:35;;;;;;;63.70;26.05;;;2.50;99.90;;;;;;5063114;28;20036;-59
2022/01/26 01:56:01;;;;;;;60.88;27.02;;;2.50;99.90;;;;;;5057788;28;20029;-60
2022/01/26 01:58:28;;;;;;;62.85;28.27;;;2.40;99.90;;;;;;5058779;28;20032;-59
2022/01/26 02:00:54;;;;;;;65.75;27.13;;;2.50;99.90;;;;;;5061976;28;20112;-58
2022/01/26 02:03:20;;;;;;;58.28;26.08;;;2.40;99.90;;;;;;5058446;28;20115;-60
2022/01/26 02:05:45;;;;;;;54.08;26.73;;;2.50;99.90;;;;;;5062584;28;20037;-60
2022/01/26 02:08:11;;;;;;;63.10;26.08;;;2.50;99.90;;;;;;5061145;28;20051;-60
2022/01/26 02:10:37;;;;;;;58.03;26.60;;;2.50;99.90;;;;;;5055696;28;20025;-59
2022/01/26 02:13:13;;;;;;;62.20;26.67;;;2.40;99.90;;;;;;5067271;28;20479;-59
2022/01/26 02:15:47;;;;;;;56.92;25.80;;;2.40;99.90;;;;;;5064151;28;20036;-59
2022/01/26 02:53:43;;;;;;;64.65;26.85;;;2.30;99.90;;;;;;5058345;28;20505;-61
2022/01/26 02:56:21;;;;;;;58.88;25.85;;;2.40;99.90;;;;;;5054678;28;20439;-59
2022/01/26 03:07:19;;;;;;;57.95;25.67;;;2.40;99.90;;;;;;5043460;28;20077;-61
2022/01/26 03:09:50;;;;;;;73.72;26.58;;;2.40;99.90;;;;;;5063414;28;20458;-61
2022/01/26 03:12:29;;;;;;;60.67;25.73;;;2.40;99.90;;;;;;5059009;28;20493;-61
2022/01/26 03:14:59;;;;;;;57.65;24.25;;;2.40;99.90;;;;;;5053805;28;20510;-60
2022/01/26 03:19:57;;;;;;;56.05;26.10;;;2.40;99.90;;;;;;5058056;28;20024;-60
2022/01/26 03:30:08;;;;;;;61.92;25.27;;;2.40;99.90;;;;;;5057380;28;20037;-58
2022/01/26 03:35:39;;;;;;;56.72;25.42;;;2.40;99.90;;;;;;5056784;28;20098;-61
2022/01/26 03:38:05;;;;;;;61.00;24.95;;;2.40;99.90;;;;;;5053955;28;20048;-60
2022/01/26 03:40:33;;;;;;;54.35;25.75;;;2.40;99.90;;;;;;5058600;28;20035;-60
2022/01/26 03:42:59;;;;;;;60.90;27.17;;;2.40;99.90;;;;;;5059870;28;20029;-60
2022/01/26 03:45:26;;;;;;;64.13;26.85;;;2.40;99.90;;;;;;5059024;28;20439;-61
2022/01/26 03:47:52;;;;;;;53.58;24.17;;;2.40;99.90;;;;;;5055493;28;20375;-61
2022/01/26 03:50:18;;;;;;;58.45;27.13;;;2.40;99.90;;;;;;5065091;28;20031;-60
2022/01/26 03:52:44;;;;;;;52.88;23.90;;;2.40;99.90;;;;;;5060293;28;20028;-60
2022/01/26 03:55:10;;;;;;;54.95;24.52;;;2.40;99.90;;;;;;5062692;28;20029;-59
2022/01/26 03:57:35;;;;;;;66.50;26.70;;;2.40;99.90;;;;;;5061540;28;20017;-60
2022/01/26 04:00:01;;;;;;;63.38;26.65;;;2.40;99.90;;;;;;5052980;28;20055;-60
2022/01/26 04:02:26;;;;;;;65.45;27.15;;;2.30;99.90;;;;;;5053850;28;20036;-59
2022/01/26 04:04:58;;;;;;;73.70;29.45;;;2.40;99.90;;;;;;5061047;28;20033;-60
2022/01/26 04:07:23;;;;;;;68.05;27.23;;;2.40;99.90;;;;;;5057650;28;20035;-61
2022/01/26 04:09:49;;;;;;;64.10;27.70;;;2.40;99.90;;;;;;5055542;28;20037;-61
2022/01/26 04:12:14;;;;;;;65.85;28.92;;;2.40;99.90;;;;;;5063847;28;20037;-60
2022/01/26 04:14:43;;;;;;;57.88;27.25;;;2.30;99.90;;;;;;5057861;28;20028;-59
2022/01/26 04:17:09;;;;;;;64.57;29.15;;;2.30;99.90;;;;;;5061069;28;20033;-60
2022/01/26 04:19:37;;;;;;;64.82;29.90;;;2.30;99.90;;;;;;5067580;28;20029;-60
2022/01/26 04:22:18;;;;;;;66.60;29.13;;;2.30;99.90;;;;;;5067236;28;20055;-60
2022/01/26 04:24:49;;;;;;;64.15;29.60;;;2.30;99.90;;;;;;5061129;28;20039;-60
2022/01/26 04:29:59;;;;;;;72.70;30.77;;;2.30;99.90;;;;;;5064820;28;20110;-60
2022/01/26 04:32:24;;;;;;;77.78;31.48;;;2.30;99.90;;;;;;5062163;28;20474;-61
2022/01/26 04:34:50;;;;;;;71.35;31.10;;;2.30;99.90;;;;;;5064088;28;20720;-61
2022/01/26 04:37:47;;;;;;;67.22;30.70;;;2.30;99.90;;;;;;5058048;28;20078;-59
2022/01/26 04:40:15;;;;;;;71.70;31.58;;;2.30;99.90;;;;;;5060675;28;20028;-61
2022/01/26 04:42:52;;;;;;;75.03;31.13;;;2.30;99.90;;;;;;5058298;28;20494;-60
2022/01/26 04:45:18;;;;;;;79.57;32.20;;;2.30;99.90;;;;;;5060834;28;20047;-60
2022/01/26 04:47:43;;;;;;;72.35;31.42;;;2.30;99.90;;;;;;5061940;28;20494;-60
2022/01/26 04:50:10;;;;;;;74.95;32.03;;;2.30;99.90;;;;;;5059891;28;20087;-60
2022/01/26 04:52:37;;;;;;;72.68;32.42;;;2.30;99.90;;;;;;5064553;28;20025;-61
2022/01/26 04:55:03;;;;;;;74.30;34.00;;;2.30;99.90;;;;;;5056335;28;20115;-59
2022/01/26 04:57:29;;;;;;;83.07;33.65;;;2.30;99.90;;;;;;5060471;28;20041;-61
2022/01/26 04:59:54;;;;;;;82.75;34.25;;;2.40;99.90;;;;;;5062596;28;20037;-60
2022/01/26 05:02:20;;;;;;;78.25;33.92;;;2.30;99.90;;;;;;5059405;28;20036;-61
2022/01/26 05:04:45;;;;;;;82.18;35.88;;;2.30;99.90;;;;;;5066370;28;20048;-60
2022/01/26 05:07:11;;;;;;;86.25;36.28;;;2.30;99.90;;;;;;5066720;28;20039;-60
2022/01/26 05:09:36;;;;;;;81.55;36.50;;;2.30;99.90;;;;;;5066952;28;20041;-60
2022/01/26 05:12:03;;;;;;;90.93;34.72;;;2.30;99.90;;;;;;5064060;28;20643;-61
2022/01/26 05:14:29;;;;;;;88.28;34.17;;;2.20;99.90;;;;;;5060151;28;20033;-61
2022/01/26 05:16:54;;;;;;;86.68;35.13;;;2.20;99.90;;;;;;5053774;28;20484;-61
2022/01/26 05:19:20;;;;;;;90.72;34.80;;;2.30;99.90;;;;;;5067633;28;20128;-61
2022/01/26 05:21:46;;;;;;;82.90;34.22;;;2.30;99.90;;;;;;5054825;28;20085;-61
2022/01/26 05:24:11;;;;;;;79.88;32.40;;;2.30;99.90;;;;;;5064577;28;20047;-60
2022/01/26 05:26:38;;;;;;;83.35;31.08;;;2.30;99.90;;;;;;5059273;28;20028;-61
2022/01/26 05:29:04;;;;;;;82.28;32.40;;;2.30;99.90;;;;;;5063632;28;20029;-61
2022/01/26 05:31:30;;;;;;;78.30;30.42;;;2.30;99.90;;;;;;5053914;28;20450;-60
2022/01/26 05:33:56;;;;;;;78.47;32.42;;;2.30;99.90;;;;;;5055144;28;20032;-61
2022/01/26 05:36:22;;;;;;;67.50;30.70;;;2.30;99.90;;;;;;5051159;28;20136;-61
2022/01/26 05:38:47;;;;;;;77.68;28.13;;;2.30;99.90;;;;;;5055508;28;20112;-60
2022/01/26 05:41:13;;;;;;;75.50;30.67;;;2.30;99.90;;;;;;5069085;28;20032;-60
2022/01/26 05:43:39;;;;;;;76.93;29.08;;;2.30;99.90;;;;;;5066436;28;20025;-59
2022/01/26 05:46:19;;;;;;;73.70;30.48;;;2.30;99.90;;;;;;5057138;28;20021;-60
2022/01/26 05:48:46;;;;;;;82.53;32.05;;;2.30;99.90;;;;;;5053729;28;20020;-61
2022/01/26 05:51:12;;;;;;;89.25;32.20;;;2.30;99.90;;;;;;5060671;28;20037;-60
2022/01/26 05:53:40;;;;;;;89.70;35.08;;;2.30;99.90;;;;;;5068525;28;20107;-61
2022/01/26 05:56:06;;;;;;;91.22;37.30;;;2.30;99.90;;;;;;5054803;28;20025;-61
2022/01/26 05:58:31;;;;;;;96.05;36.47;;;2.30;99.90;;;;;;5054747;28;20047;-61
2022/01/26 06:01:00;;;;;;;90.45;35.22;;;2.30;99.90;;;;;;5052214;28;20506;-60
2022/01/26 06:03:26;;;;;;;107.90;40.13;;;2.30;99.90;;;;;;5065138;28;20028;-60
2022/01/26 06:05:54;;;;;;;92.07;36.00;;;2.30;99.90;;;;;;5061340;28;20021;-60
2022/01/26 06:08:23;;;;;;;100.57;41.03;;;2.30;99.90;;;;;;5054427;28;20111;-60
2022/01/26 06:10:49;;;;;;;106.68;39.17;;;2.30;99.90;;;;;;5052737;28;20402;-60
2022/01/26 06:13:15;;;;;;;95.43;39.25;;;2.30;99.90;;;;;;5058639;28;20048;-61
2022/01/26 06:15:41;;;;;;;94.78;39.88;;;2.30;99.90;;;;;;5057999;28;20029;-61
2022/01/26 06:18:08;;;;;;;96.93;39.83;;;2.30;99.90;;;;;;5069703;28;20093;-60
2022/01/26 06:20:34;;;;;;;94.05;39.65;;;2.30;99.90;;;;;;5058550;28;20083;-60
2022/01/26 06:22:59;;;;;;;100.38;37.90;;;2.30;99.90;;;;;;5053553;28;20032;-61
2022/01/26 06:25:26;;;;;;;102.97;39.08;;;2.30;99.90;;;;;;5052137;28;20021;-61
2022/01/26 06:27:55;;;;;;;95.90;38.70;;;2.30;99.90;;;;;;5061608;28;20071;-61
2022/01/26 06:30:22;;;;;;;104.82;39.00;;;2.30;99.90;;;;;;5060603;28;20024;-60
2022/01/26 06:32:48;;;;;;;95.53;37.80;;;2.20;99.90;;;;;;5054431;28;20029;-59
2022/01/26 06:35:14;;;;;;;100.75;38.90;;;2.30;99.90;;;;;;5055285;28;20601;-61
2022/01/26 06:37:40;;;;;;;107.05;40.50;;;2.30;99.90;;;;;;5058209;28;20052;-61
2022/01/26 06:40:06;;;;;;;107.03;42.25;;;2.20;99.90;;;;;;5064062;28;20055;-60
2022/01/26 06:42:39;;;;;;;107.63;39.60;;;2.20;99.90;;;;;;5056436;28;20044;-61
2022/01/26 06:47:50;;;;;;;107.90;40.28;;;2.20;99.90;;;;;;5053560;28;20108;-60
2022/01/26 06:50:18;;;;;;;106.07;39.63;;;2.20;99.90;;;;;;5052130;28;20386;-60
2022/01/26 06:52:46;;;;;;;111.00;41.38;;;2.20;99.90;;;;;;5053778;28;20513;-60
2022/01/26 06:55:12;;;;;;;111.60;41.70;;;2.20;99.90;;;;;;5065727;28;20497;-60
2022/01/26 06:57:38;;;;;;;104.53;41.78;;;2.20;99.90;;;;;;5056319;28;20029;-61
2022/01/26 07:00:04;;;;;;;111.20;45.72;;;2.20;99.90;;;;;;5058988;28;20028;-61
2022/01/26 07:02:30;;;;;;;103.25;41.30;;;2.20;99.90;;;;;;5057729;28;20037;-60
2022/01/26 07:04:55;;;;;;;113.95;43.40;;;2.20;99.90;;;;;;5050195;28;20074;-61
2022/01/26 07:07:21;;;;;;;110.85;43.65;;;2.20;99.90;;;;;;5057792;28;20035;-61
2022/01/26 07:09:46;;;;;;;124.43;45.45;;;2.20;99.90;;;;;;5050186;28;20501;-61
2022/01/26 07:12:12;;;;;;;115.97;44.78;;;2.20;99.90;;;;;;5060776;28;20033;-61
2022/01/26 07:20:57;;;;;;;115.30;41.78;;;2.30;99.90;;;;;;5056309;28;20059;-60
2022/01/26 07:22:58;;;;;;;116.72;42.42;;;2.20;99.90;;;;;;5053107;28;20472;-61
2022/01/26 07:25:23;;;;;;;114.18;41.17;;;2.20;99.90;;;;;;5060053;28;20028;-61
2022/01/26 07:27:50;;;;;;;107.35;41.70;;;2.20;99.90;;;;;;5052560;28;20024;-60
2022/01/26 07:30:16;;;;;;;129.02;46.05;;;2.20;99.90;;;;;;5063698;28;20398;-60
2022/01/26 07:32:42;;;;;;;115.30;41.78;;;2.20;99.90;;;;;;5064547;28;20024;-61
2022/01/26 07:35:08;;;;;;;118.20;42.35;;;2.20;99.90;;;;;;5062824;28;20747;-59
2022/01/26 07:37:34;;;;;;;116.20;40.58;;;2.20;99.90;;;;;;5060847;28;20032;-61
2022/01/26 07:42:27;;;;;;;113.75;42.25;;;2.10;99.90;;;;;;5064078;28;20044;-59
2022/01/26 07:44:53;;;;;;;119.00;45.20;;;2.10;99.90;;;;;;5053285;28;20541;-60
2022/01/26 07:47:19;;;;;;;122.57;44.20;;;2.10;99.90;;;;;;5060588;28;20028;-61
2022/01/26 07:49:44;;;;;;;131.95;47.08;;;2.10;99.90;;;;;;5067301;28;20056;-61
2022/01/26 07:52:13;;;;;;;120.88;44.70;;;2.10;99.90;;;;;;5057525;28;20465;-61
2022/01/26 07:54:38;;;;;;;121.13;44.85;;;2.10;99.90;;;;;;5054453;28;20076;-61
2022/01/26 07:57:06;;;;;;;129.32;45.00;;;2.10;99.90;;;;;;5065480;28;20064;-61
2022/01/26 07:59:32;;;;;;;108.50;40.90;;;2.10;99.90;;;;;;5053515;28;20032;-61
2022/01/26 08:01:58;;;;;;;118.57;42.17;;;2.10;99.90;;;;;;5058059;28;20029;-60
2022/01/26 08:04:23;;;;;;;109.28;42.58;;;2.10;99.90;;;;;;5045504;28;20044;-60
2022/01/26 08:06:50;;;;;;;110.93;41.05;;;2.20;99.90;;;;;;5033046;28;20069;-61
2022/01/26 08:09:19;;;;;;;119.13;42.72;;;2.20;99.90;;;;;;5045949;28;20028;-61
2022/01/26 08:11:47;;;;;;;113.03;41.47;;;2.20;99.90;;;;;;5051366;28;20029;-61
2022/01/26 08:14:13;;;;;;;115.03;41.60;;;2.20;99.90;;;;;;5047417;28;20083;-61
2022/01/26 08:16:39;;;;;;;120.53;41.47;;;2.20;99.90;;;;;;5051755;28;20025;-60
2022/01/26 08:19:05;;;;;;;111.60;41.50;;;2.30;99.90;;;;;;5037930;28;20052;-61
2022/01/26 08:21:30;;;;;;;124.53;47.47;;;2.30;99.90;;;;;;5043764;28;20033;-60
2022/01/26 08:24:02;;;;;;;118.88;42.45;;;2.30;99.90;;;;;;5033314;28;20032;-61
2022/01/26 08:26:38;;;;;;;109.40;42.33;;;2.30;99.90;;;;;;5048058;28;20138;-61
2022/01/26 08:29:14;;;;;;;131.85;50.35;;;2.20;99.90;;;;;;5034449;28;20571;-61
2022/01/26 08:31:43;;;;;;;125.57;48.90;;;2.20;99.90;;;;;;5038418;28;20025;-61
2022/01/26 08:34:09;;;;;;;135.30;51.30;;;2.20;99.90;;;;;;5032487;28;20117;-60
2022/01/26 08:36:35;;;;;;;127.95;50.78;;;2.20;99.90;;;;;;5039365;28;20513;-59
2022/01/26 08:39:01;;;;;;;117.40;45.10;;;2.10;99.90;;;;;;5041150;28;20044;-61
2022/01/26 08:41:27;;;;;;;112.32;42.20;;;2.10;99.90;;;;;;5044691;28;20409;-61
2022/01/26 08:43:53;;;;;;;116.75;39.50;;;2.10;99.90;;;;;;5048533;28;20017;-61
2022/01/26 08:46:19;;;;;;;117.03;45.55;;;2.10;99.90;;;;;;5043692;28;20037;-61
2022/01/26 08:48:44;;;;;;;119.30;43.08;;;2.00;99.90;;;;;;5051688;28;20082;-61
2022/01/26 08:51:10;;;;;;;110.88;39.88;;;2.00;99.90;;;;;;5051255;28;20041;-60
2022/01/26 08:53:36;;;;;;;110.78;43.72;;;2.00;99.90;;;;;;5039025;28;20175;-61
2022/01/26 08:56:01;;;;;;;116.30;44.00;;;2.00;99.90;;;;;;5058043;28;20071;-60
2022/01/26 08:58:27;;;;;;;118.10;41.50;;;2.00;99.90;;;;;;5038162;28;20528;-61
2022/01/26 09:00:54;;;;;;;111.20;39.40;;;2.00;99.90;;;;;;5047477;28;20020;-59
2022/01/26 09:03:20;;;;;;;109.35;38.47;;;2.00;99.90;;;;;;5044762;28;20021;-62
2022/01/26 09:05:46;;;;;;;118.57;40.20;;;1.90;99.90;;;;;;5005075;28;20029;-61
2022/01/26 09:08:12;;;;;;;115.80;41.42;;;1.90;99.90;;;;;;5037433;28;20021;-60
2022/01/26 09:10:39;;;;;;;121.07;42.45;;;2.00;99.90;;;;;;5039905;28;20102;-60
2022/01/26 09:13:05;;;;;;;113.22;41.05;;;2.10;99.90;;;;;;5046734;28;20045;-61
2022/01/26 09:15:32;;;;;;;114.72;38.10;;;2.10;99.90;;;;;;5036658;28;20021;-61
2022/01/26 09:18:01;;;;;;;110.70;37.75;;;2.20;99.90;;;;;;5031623;28;20513;-62
2022/01/26 09:20:27;;;;;;;110.47;38.75;;;2.20;99.90;;;;;;5034173;28;20119;-61
2022/01/26 09:22:53;;;;;;;114.15;39.45;;;2.20;99.90;;;;;;5038771;28;20100;-61
2022/01/26 09:25:18;;;;;;;113.22;40.85;;;2.10;99.90;;;;;;5033813;28;20100;-61
2022/01/26 09:27:44;;;;;;;108.20;39.13;;;2.20;99.90;;;;;;5045822;28;20021;-61
2022/01/26 09:30:10;;;;;;;110.50;39.15;;;2.20;99.90;;;;;;5038868;28;20025;-60
2022/01/26 09:32:39;;;;;;;112.82;42.15;;;2.20;99.90;;;;;;5040812;28;20025;-58
2022/01/26 09:35:07;;;;;;;123.28;41.70;;;2.20;99.90;;;;;;5037224;28;20494;-60
2022/01/26 09:37:33;;;;;;;111.85;39.47;;;2.30;99.90;;;;;;5050665;28;20022;-60
2022/01/26 09:39:59;;;;;;;109.10;39.90;;;2.30;99.90;;;;;;5051094;28;20056;-60
2022/01/26 09:42:25;;;;;;;112.68;41.00;;;2.30;99.90;;;;;;5048428;28;20029;-60
2022/01/26 09:44:51;;;;;;;125.47;45.65;;;2.30;99.90;;;;;;5057472;28;20059;-60
2022/01/26 09:47:16;;;;;;;120.40;43.63;;;2.40;99.90;;;;;;5050387;28;20055;-60
2022/01/26 09:49:43;;;;;;;118.70;41.85;;;2.40;99.90;;;;;;5057702;28;20160;-61
2022/01/26 09:52:25;;;;;;;135.55;48.63;;;2.50;99.90;;;;;;5058377;28;20108;-61
2022/01/26 09:54:51;;;;;;;122.72;45.25;;;2.40;99.90;;;;;;5046182;28;20036;-60
2022/01/26 09:57:17;;;;;;;120.93;42.05;;;2.40;99.90;;;;;;5044581;28;20032;-60
2022/01/26 09:59:45;;;;;;;118.47;43.63;;;2.50;99.90;;;;;;5033859;28;20430;-60
2022/01/26 10:02:21;;;;;;;120.07;44.22;;;2.50;99.90;;;;;;5047891;28;20563;-61
2022/01/26 10:04:53;;;;;;;122.30;44.78;;;2.50;99.90;;;;;;5045371;28;20045;-61
2022/01/26 10:07:31;;;;;;;123.65;45.25;;;2.50;99.90;;;;;;5011824;28;20471;-61
2022/01/26 10:15:27;;;;;;;128.27;45.20;;;2.50;99.90;;;;;;5032351;28;20641;-61
2022/01/26 10:17:25;;;;;;;128.00;43.45;;;2.50;99.90;;;;;;5044820;28;20058;-61
2022/01/26 10:19:18;;;;;;;140.60;49.35;;;2.50;99.90;;;;;;5030137;28;20060;-61
2022/01/26 10:21:49;;;;;;;131.73;45.22;;;2.50;99.90;;;;;;5037029;28;20033;-61
2022/01/26 10:24:16;;;;;;;128.98;45.92;;;2.60;99.90;;;;;;5037811;28;20025;-61
2022/01/26 10:26:50;;;;;;;126.72;45.50;;;2.60;99.90;;;;;;5057871;28;20052;-62
2022/01/26 10:29:17;;;;;;;132.57;48.75;;;2.60;99.90;;;;;;5046052;28;20032;-60
2022/01/26 10:31:43;;;;;;;114.10;41.75;;;2.60;99.90;;;;;;5042475;28;20039;-60
2022/01/26 10:34:10;;;;;;;111.72;41.53;;;2.60;99.90;;;;;;5041522;28;20702;-61
2022/01/26 10:36:40;;;;;;;107.25;38.90;;;2.50;99.90;;;;;;5043805;28;20029;-61
2022/01/26 10:39:13;;;;;;;109.55;37.47;;;2.50;99.90;;;;;;5045070;28;20497;-61
2022/01/26 10:41:41;;;;;;;112.70;40.17;;;2.50;99.90;;;;;;5058124;28;20035;-62
2022/01/26 10:44:07;;;;;;;114.40;41.53;;;2.50;99.90;;;;;;5040402;28;20021;-61
2022/01/26 10:46:39;;;;;;;112.40;39.50;;;2.40;99.90;;;;;;5042479;28;20036;-62
2022/01/26 10:49:15;;;;;;;111.40;41.53;;;2.50;99.90;;;;;;5055786;28;20033;-61
2022/01/26 10:54:22;;;;;;;121.07;45.17;;;2.60;99.90;;;;;;5039936;28;20036;-60
2022/01/26 10:56:49;;;;;;;141.55;47.97;;;2.60;99.90;;;;;;5043715;28;20025;-61
2022/01/26 10:59:15;;;;;;;144.10;50.42;;;2.60;99.90;;;;;;5041867;28;20032;-61
2022/01/26 11:01:40;;;;;;;111.82;40.40;;;2.60;99.90;;;;;;5041094;28;20116;-60
2022/01/26 11:04:08;;;;;;;126.18;40.53;;;2.60;99.90;;;;;;5041462;28;20029;-61
2022/01/26 11:06:34;;;;;;;117.43;34.88;;;2.60;99.90;;;;;;5031836;28;20056;-61
2022/01/26 11:09:12;;;;;;;125.43;43.05;;;2.60;99.90;;;;;;5042039;28;20040;-61
2022/01/26 11:11:40;;;;;;;124.45;42.28;;;2.60;99.90;;;;;;5055150;28;20371;-60
2022/01/26 11:14:22;;;;;;;158.55;51.70;;;2.60;99.90;;;;;;5040244;28;20108;-60
2022/01/26 11:16:54;;;;;;;143.43;46.95;;;2.70;99.90;;;;;;5056014;28;20040;-61
2022/01/26 11:19:20;;;;;;;142.73;46.83;;;2.60;99.90;;;;;;5057698;28;20405;-60
2022/01/26 11:21:46;;;;;;;136.48;44.83;;;2.70;99.90;;;;;;5060618;28;20040;-59
2022/01/26 11:24:23;;;;;;;146.85;51.45;;;2.70;99.90;;;;;;5064493;28;20020;-61
2022/01/26 11:27:03;;;;;;;139.95;44.72;;;2.60;99.90;;;;;;5061537;28;20382;-59
2022/01/26 11:29:33;;;;;;;134.25;41.78;;;2.60;99.90;;;;;;5051625;28;20028;-61
2022/01/26 11:32:05;;;;;;;133.43;41.92;;;2.60;99.90;;;;;;5058294;28;20029;-60
2022/01/26 11:34:33;;;;;;;146.40;45.13;;;2.50;99.90;;;;;;5055955;28;20047;-58
2022/01/26 11:37:00;;;;;;;142.55;44.95;;;2.50;99.90;;;;;;5054145;28;20123;-60
2022/01/26 11:42:34;;;;;;;138.75;42.20;;;2.60;99.90;;;;;;5056623;28;20035;-61
2022/01/26 11:45:12;;;;;;;142.68;43.78;;;2.60;99.90;;;;;;5058553;28;20126;-58
2022/01/26 11:47:41;;;;;;;147.85;43.20;;;2.60;99.90;;;;;;5051157;28;20037;-61
2022/01/26 11:50:12;;;;;;;135.98;44.72;;;2.50;99.90;;;;;;5037580;28;20102;-61
2022/01/26 11:52:39;;;;;;;148.38;43.25;;;2.60;99.90;;;;;;5055581;28;20036;-61
2022/01/26 11:55:35;;;;;;;160.88;46.10;;;2.50;99.90;;;;;;5055875;28;20032;-61
2022/01/26 11:58:19;;;;;;;155.68;44.13;;;2.60;99.90;;;;;;5061323;28;20036;-61
2022/01/26 12:00:59;;;;;;;139.38;44.75;;;2.70;99.90;;;;;;5064389;28;20024;-60
2022/01/26 12:03:31;;;;;;;141.73;45.72;;;2.70;99.90;;;;;;5058426;28;20050;-61
2022/01/26 12:05:58;;;;;;;143.40;44.35;;;2.60;99.90;;;;;;5039005;28;20025;-61
2022/01/26 12:08:41;;;;;;;171.50;53.25;;;2.60;99.90;;;;;;5057917;28;20112;-61
2022/01/26 12:11:11;;;;;;;139.23;42.70;;;2.60;99.90;;;;;;5049579;28;20040;-61
2022/01/26 12:13:38;;;;;;;140.68;40.15;;;2.60;99.90;;;;;;5060404;28;20017;-61
2022/01/26 12:16:15;;;;;;;140.35;41.83;;;2.60;99.90;;;;;;5062372;28;20043;-60
2022/01/26 12:18:49;;;;;;;136.68;41.35;;;2.60;99.90;;;;;;5052602;28;20040;-61
2022/01/26 12:33:11;;;;;;;135.77;41.20;;;2.70;99.90;;;;;;5051581;28;20048;-60
2022/01/26 12:38:22;;;;;;;136.43;42.05;;;2.60;99.90;;;;;;5033354;28;20037;-58
2022/01/26 12:43:48;;;;;;;126.55;42.08;;;2.60;99.90;;;;;;5039250;28;20027;-61
2022/01/26 12:46:19;;;;;;;137.43;43.15;;;2.60;99.90;;;;;;5047035;28;20497;-61
2022/01/26 12:48:50;;;;;;;137.32;40.58;;;2.60;99.90;;;;;;5042161;28;20456;-59
2022/01/26 12:51:17;;;;;;;127.30;38.15;;;2.60;99.90;;;;;;5042640;28;20032;-61
2022/01/26 12:53:43;;;;;;;129.23;38.90;;;2.70;99.90;;;;;;5044439;28;20517;-61
2022/01/26 12:56:12;;;;;;;128.98;39.83;;;2.70;99.90;;;;;;5046175;28;20044;-61
2022/01/26 12:58:40;;;;;;;123.65;35.85;;;2.70;99.90;;;;;;5043801;28;20491;-61
2022/01/26 13:01:07;;;;;;;116.03;37.22;;;2.70;99.90;;;;;;5041144;28;20041;-59
2022/01/26 13:03:41;;;;;;;111.15;34.80;;;2.70;99.90;;;;;;5046549;28;20021;-61
2022/01/26 13:06:22;;;;;;;111.10;36.72;;;2.70;99.90;;;;;;5045777;28;20038;-60
2022/01/26 13:08:51;;;;;;;111.03;32.47;;;2.70;99.90;;;;;;5037938;28;20132;-59
2022/01/26 13:11:30;;;;;;;91.65;29.13;;;2.80;99.90;;;;;;5038166;28;20033;-60
2022/01/26 13:16:44;;;;;;;107.07;34.88;;;2.80;99.90;;;;;;5041737;28;20394;-61
2022/01/26 13:19:36;;;;;;;94.20;33.58;;;2.80;99.90;;;;;;5036960;28;20395;-57
2022/01/26 13:30:26;;;;;;;77.15;26.55;;;2.90;99.90;;;;;;5038905;28;20029;-61
2022/01/26 13:33:26;;;;;;;72.82;25.02;;;2.90;99.90;;;;;;5047780;28;20032;-61
2022/01/26 13:49:08;;;;;;;70.50;25.80;;;2.80;99.90;;;;;;5037245;28;20028;-61
2022/01/26 14:01:44;;;;;;;73.25;27.63;;;2.70;99.90;;;;;;5050107;28;20567;-61
2022/01/26 14:04:15;;;;;;;73.63;28.88;;;2.70;99.90;;;;;;5049132;28;20582;-60
2022/01/26 14:06:42;;;;;;;72.72;29.02;;;2.70;99.90;;;;;;5035262;28;20571;-61
2022/01/26 14:09:08;;;;;;;79.03;29.75;;;2.70;99.90;;;;;;5058123;28;20036;-61
2022/01/26 14:11:33;;;;;;;86.70;32.33;;;2.70;99.90;;;;;;5050450;28;20029;-62
2022/01/26 14:14:00;;;;;;;88.03;32.78;;;2.60;99.90;;;;;;5051120;28;20043;-62
2022/01/26 14:16:29;;;;;;;78.70;29.13;;;2.60;99.90;;;;;;5051276;28;20394;-60
2022/01/26 14:22:05;;;;;;;91.38;33.63;;;2.50;99.90;;;;;;5050474;28;20024;-61
2022/01/26 14:24:30;;;;;;;84.57;31.67;;;2.50;99.90;;;;;;5057274;28;20039;-61
2022/01/26 14:26:59;;;;;;;85.20;34.45;;;2.50;99.90;;;;;;5053931;28;20021;-62
2022/01/26 14:29:39;;;;;;;94.25;32.63;;;2.50;99.90;;;;;;5056764;28;20121;-60
2022/01/26 14:54:02;;;;;;;91.63;30.38;;;2.50;99.90;;;;;;5035905;28;20422;-61
2022/01/26 15:00:08;;;;;;;83.43;28.88;;;2.60;99.90;;;;;;5049003;28;20494;-60
2022/01/26 15:32:36;;;;;;;84.47;28.77;;;2.50;99.90;;;;;;5039696;28;20044;-61
2022/01/26 15:42:51;;;;;;;84.13;29.88;;;2.50;99.90;;;;;;5046645;28;20043;-60
2022/01/26 15:58:32;;;;;;;101.10;40.80;;;2.50;99.90;;;;;;5037193;28;20025;-61
2022/01/26 16:20:14;;;;;;;94.63;33.90;;;2.40;99.90;;;;;;5053406;28;20029;-61
2022/01/26 16:38:51;;;;;;;101.15;37.20;;;2.20;99.90;;;;;;5026546;28;20033;-60
2022/01/26 16:52:26;;;;;;;100.22;36.40;;;2.30;99.90;;;;;;5048825;28;20074;-60
2022/01/26 18:15:14;;;;;;;104.70;34.03;;;2.20;99.90;;;;;;5055278;28;20421;-60
2022/01/26 18:26:46;;;;;;;91.78;33.60;;;2.20;99.90;;;;;;5051553;28;20028;-61
2022/01/26 18:50:59;;;;;;;94.45;34.05;;;2.20;99.90;;;;;;5059688;28;20043;-59
2022/01/26 18:53:25;;;;;;;84.32;32.08;;;2.20;99.90;;;;;;5050321;28;20029;-59
2022/01/26 18:55:50;;;;;;;99.50;37.63;;;2.20;99.90;;;;;;5050453;28;20079;-60
2022/01/26 18:58:16;;;;;;;106.47;39.88;;;2.20;99.90;;;;;;5066355;28;20024;-60
2022/01/26 19:00:44;;;;;;;111.53;42.45;;;2.20;99.90;;;;;;5066147;28;20548;-60
2022/01/26 19:03:11;;;;;;;85.32;33.22;;;2.20;99.90;;;;;;5060261;28;20029;-61
2022/01/26 19:05:37;;;;;;;79.78;28.45;;;2.20;99.90;;;;;;5061025;28;20783;-59
2022/01/26 19:08:02;;;;;;;75.80;28.63;;;2.30;99.90;;;;;;5045846;28;20028;-60
2022/01/26 19:10:28;;;;;;;139.93;53.53;;;2.30;99.90;;;;;;5061369;28;20551;-60
2022/01/26 19:12:54;;;;;;;71.22;28.35;;;2.20;99.90;;;;;;5041291;28;20021;-60
2022/01/26 19:15:24;;;;;;;76.82;29.45;;;2.30;99.90;;;;;;5065884;28;20518;-60